Time;durP1;ratioP1;P1;durP2;ratioP2;P2;SDS_P1;SDS_P2;PMS_P1;PMS_P2;Temp;Humidity;BMP_temperature;BMP_pressure;BME280_temperature;BME280_humidity;BME280_pressure;Samples;Min_cycle;Max_cycle;Signal;HPM_P1;HPM_P2
2022/10/11 00:00:10;;;;;;;10.25;4.15;;;;;;;11.67;59.54;102372.06;4950923;28;124756;-71
2022/10/11 00:02:37;;;;;;;15.10;4.82;;;;;;;11.65;59.73;102373.03;4951882;28;124163;-71
2022/10/11 00:05:04;;;;;;;11.45;4.78;;;;;;;11.63;59.45;102374.84;4963452;28;114553;-71
2022/10/11 00:07:31;;;;;;;12.95;4.68;;;;;;;11.59;59.52;102378.50;4969874;28;113870;-71
2022/10/11 00:09:58;;;;;;;19.67;4.95;;;;;;;11.56;59.33;102390.03;4969216;28;123155;-71
2022/10/11 00:12:25;;;;;;;14.23;4.28;;;;;;;11.50;59.52;102391.06;4951824;28;122894;-71
2022/10/11 00:14:52;;;;;;;11.98;4.45;;;;;;;11.46;59.62;102381.44;4969138;28;115593;-71
2022/10/11 00:17:19;;;;;;;17.45;5.55;;;;;;;11.43;59.59;102384.19;4949344;28;115187;-71
2022/10/11 00:19:46;;;;;;;12.90;4.57;;;;;;;11.41;59.69;102396.59;4955769;28;123617;-71
2022/10/11 00:22:13;;;;;;;12.65;4.95;;;;;;;11.39;59.77;102387.78;4950773;28;123511;-71
2022/10/11 00:24:40;;;;;;;10.07;4.15;;;;;;;11.38;59.85;102396.69;4969143;28;114195;-71
2022/10/11 00:27:08;;;;;;;13.05;4.60;;;;;;;11.35;59.67;102396.72;4968360;28;114401;-72
2022/10/11 00:29:37;;;;;;;14.25;5.18;;;;;;;11.33;59.89;102393.25;4968806;28;123821;-72
2022/10/11 00:32:04;;;;;;;10.98;4.47;;;;;;;11.31;59.98;102389.75;4950109;28;123198;-72
2022/10/11 00:34:31;;;;;;;13.55;5.00;;;;;;;11.30;59.93;102398.63;4967624;28;114551;-72
2022/10/11 00:36:58;;;;;;;15.38;4.68;;;;;;;11.29;59.94;102397.75;4968814;28;113386;-72
2022/10/11 00:39:25;;;;;;;12.07;4.75;;;;;;;11.30;59.75;102398.63;4968127;28;124578;-72
2022/10/11 00:41:53;;;;;;;10.45;4.53;;;;;;;11.28;60.08;102400.44;4966420;28;124345;-72
2022/10/11 00:44:23;;;;;;;11.55;4.82;;;;;;;11.26;59.77;102399.59;4948764;28;113063;-72
2022/10/11 00:47:05;;;;;;;12.20;4.68;;;;;;;11.24;59.71;102398.75;4966219;28;113819;-72
2022/10/11 00:49:37;;;;;;;11.93;4.40;;;;;;;11.22;59.86;102403.22;4967512;28;124019;-72
2022/10/11 00:52:21;;;;;;;8.13;4.18;;;;;;;11.19;60.01;102405.94;4965882;28;124607;-72
2022/10/11 00:54:49;;;;;;;16.40;4.82;;;;;;;11.18;59.88;102409.53;4966819;28;114973;-72
2022/10/11 00:57:19;;;;;;;16.98;5.22;;;;;;;11.17;60.21;102410.41;4951199;28;113815;-72
2022/10/11 00:59:52;;;;;;;16.17;5.03;;;;;;;11.16;60.16;102411.34;4967200;28;123630;-72
2022/10/11 01:02:21;;;;;;;12.32;4.90;;;;;;;11.15;60.46;102409.56;4950866;28;123056;-72
2022/10/11 01:04:50;;;;;;;12.63;5.10;;;;;;;11.16;60.09;102411.34;4950335;28;116299;-72
2022/10/11 01:07:37;;;;;;;14.30;4.78;;;;;;;11.16;60.37;102411.34;4959370;28;115114;-72
2022/10/11 01:10:05;;;;;;;10.68;4.65;;;;;;;11.15;60.08;102414.88;4968058;28;124744;-72
2022/10/11 01:12:32;;;;;;;11.68;5.00;;;;;;;11.13;60.15;102412.25;4968590;28;124128;-72
2022/10/11 01:15:10;;;;;;;14.70;4.82;;;;;;;11.12;60.15;102409.66;4950998;28;114273;-72
2022/10/11 01:17:58;;;;;;;14.95;4.55;;;;;;;11.10;60.12;102407.91;4970634;28;113997;-72
2022/10/11 01:20:34;;;;;;;11.68;4.63;;;;;;;11.09;60.27;102411.47;4937445;28;123011;-72
2022/10/11 01:23:32;;;;;;;12.60;4.43;;;;;;;11.08;60.24;102411.50;4969293;28;123697;-72
2022/10/11 01:26:22;;;;;;;10.55;4.03;;;;;;;11.04;60.27;102408.03;4972365;28;116013;-72
2022/10/11 01:29:11;;;;;;;9.82;4.60;;;;;;;11.02;60.03;102409.88;4968514;28;113443;-72
2022/10/11 01:31:55;;;;;;;14.95;4.88;;;;;;;10.99;59.93;102409.91;4970976;28;123769;-72
2022/10/11 01:34:31;;;;;;;12.85;4.57;;;;;;;10.97;59.68;102422.34;4965029;28;123980;-72
2022/10/11 01:37:12;;;;;;;12.02;4.47;;;;;;;10.94;60.11;102417.09;4970197;28;115059;-72
2022/10/11 01:39:45;;;;;;;14.75;4.78;;;;;;;10.92;60.08;102416.25;4971179;28;113237;-72
2022/10/11 01:42:15;;;;;;;12.27;4.35;;;;;;;10.90;59.82;102415.41;4953163;28;123657;-72
2022/10/11 01:44:47;;;;;;;14.82;4.45;;;;;;;10.88;59.72;102417.22;4966647;28;125335;-72
2022/10/11 01:47:19;;;;;;;11.23;4.18;;;;;;;10.85;59.73;102426.13;4948174;28;119424;-72
2022/10/11 01:50:01;;;;;;;11.27;4.32;;;;;;;10.83;59.78;102419.09;4966680;28;119365;-72
2022/10/11 01:52:32;;;;;;;13.07;4.30;;;;;;;10.80;59.81;102413.88;4967352;28;123986;-71
2022/10/11 01:55:12;;;;;;;9.98;4.50;;;;;;;10.78;59.88;102431.59;4934746;28;123131;-72
2022/10/11 01:57:45;;;;;;;10.00;3.85;;;;;;;10.74;59.68;102429.88;4966716;28;119833;-72
2022/10/11 02:00:22;;;;;;;10.93;4.18;;;;;;;10.70;59.81;102429.97;4950655;28;119790;-72
2022/10/11 02:03:08;;;;;;;9.27;3.75;;;;;;;10.67;59.53;102430.00;4949317;28;124768;-72
2022/10/11 02:05:53;;;;;;;7.72;3.78;;;;;;;10.62;59.69;102437.16;4966251;28;123565;-72
2022/10/11 02:08:37;;;;;;;7.25;3.50;;;;;;;10.58;59.29;102439.91;4964870;28;119333;-72
2022/10/11 02:11:32;;;;;;;10.30;3.55;;;;;;;10.50;59.40;102437.41;4950579;28;118475;-72
2022/10/11 02:14:19;;;;;;;9.95;3.72;;;;;;;10.45;59.44;102428.69;4960115;28;126295;-72
2022/10/11 02:16:56;;;;;;;11.60;4.03;;;;;;;10.41;59.27;102442.88;4965707;28;124339;-72
2022/10/11 02:19:28;;;;;;;11.60;4.03;;;;;;;10.36;59.33;102435.03;4963631;28;119635;-72
2022/10/11 02:22:05;;;;;;;10.93;4.03;;;;;;;10.32;59.47;102442.16;4948481;28;118419;-72
2022/10/11 02:24:36;;;;;;;10.25;4.47;;;;;;;10.30;59.45;102446.63;4966165;28;124565;-72
2022/10/11 02:27:05;;;;;;;12.55;4.18;;;;;;;10.29;59.42;102452.78;4964415;28;123881;-72
2022/10/11 02:29:36;;;;;;;11.70;4.50;;;;;;;10.26;59.75;102450.16;4967422;28;118967;-70
2022/10/11 02:32:06;;;;;;;11.02;4.07;;;;;;;10.24;59.44;102446.66;4955863;28;118702;-69
2022/10/11 02:34:49;;;;;;;9.57;3.97;;;;;;;10.20;59.70;102439.69;4967885;28;123891;-70
2022/10/11 02:37:40;;;;;;;8.77;3.65;;;;;;;10.17;59.49;102445.06;4965478;28;124851;-72
2022/10/11 02:40:18;;;;;;;11.02;4.38;;;;;;;10.16;59.59;102459.19;4959189;28;118965;-72
2022/10/11 02:42:52;;;;;;;10.00;3.90;;;;;;;10.13;59.47;102448.63;4968083;28;119223;-72
2022/10/11 02:45:26;;;;;;;13.32;4.10;;;;;;;10.11;59.60;102455.72;4965951;28;123641;-72
2022/10/11 02:47:53;;;;;;;11.88;4.28;;;;;;;10.09;59.61;102452.25;4949204;28;123378;-72
2022/10/11 02:50:22;;;;;;;10.38;3.97;;;;;;;10.06;59.68;102447.03;4968093;28;119153;-72
2022/10/11 02:52:49;;;;;;;13.25;4.10;;;;;;;10.02;59.55;102451.50;4967397;28;120652;-72
2022/10/11 02:55:16;;;;;;;9.98;4.07;;;;;;;10.00;59.24;102457.69;4967226;28;124117;-71
2022/10/11 02:57:43;;;;;;;10.40;3.90;;;;;;;9.97;59.33;102458.63;4947859;28;124109;-72
2022/10/11 03:00:11;;;;;;;8.32;3.92;;;;;;;9.94;59.10;102459.56;4967385;28;119039;-72
2022/10/11 03:02:38;;;;;;;9.52;3.65;;;;;;;9.91;59.21;102464.88;4967487;28;119086;-72
2022/10/11 03:05:05;;;;;;;7.45;4.13;;;;;;;9.89;59.46;102468.47;4967192;28;123835;-72
2022/10/11 03:07:32;;;;;;;10.43;4.28;;;;;;;9.85;59.69;102467.66;4966891;28;123714;-72
2022/10/11 03:09:59;;;;;;;9.68;3.47;;;;;;;9.82;59.55;102465.03;4949528;28;118266;-72
2022/10/11 03:12:26;;;;;;;8.88;3.65;;;;;;;9.80;59.60;102461.53;4967429;28;118994;-72
2022/10/11 03:14:53;;;;;;;10.40;3.58;;;;;;;9.79;59.65;102464.22;4965316;28;123181;-72
2022/10/11 03:17:20;;;;;;;7.97;3.30;;;;;;;9.77;59.53;102472.16;4965289;28;123794;-72
2022/10/11 03:20:04;;;;;;;7.75;3.35;;;;;;;9.75;59.28;102468.66;4950227;28;119254;-72
2022/10/11 03:22:31;;;;;;;6.82;3.40;;;;;;;9.72;59.55;102463.44;4967111;28;119155;-72
2022/10/11 03:24:59;;;;;;;6.95;3.47;;;;;;;9.70;59.63;102459.91;4966887;28;124755;-72
2022/10/11 03:27:31;;;;;;;8.25;3.50;;;;;;;9.71;59.61;102472.25;4965600;28;123885;-72
2022/10/11 03:29:59;;;;;;;6.05;3.53;;;;;;;9.66;59.54;102468.81;4965281;28;119072;-72
2022/10/11 03:32:27;;;;;;;9.25;3.00;;;;;;;9.64;59.48;102470.59;4949458;28;118491;-72
2022/10/11 03:34:54;;;;;;;8.52;3.40;;;;;;;9.61;59.38;102471.53;4949007;28;123814;-72
2022/10/11 03:37:21;;;;;;;7.53;3.30;;;;;;;9.60;59.63;102476.84;4967065;28;123736;-72
2022/10/11 03:39:48;;;;;;;6.93;3.25;;;;;;;9.57;59.32;102474.22;4948602;28;121032;-72
2022/10/11 03:42:15;;;;;;;9.32;3.33;;;;;;;9.54;59.47;102470.72;4950824;28;121233;-72
2022/10/11 03:44:42;;;;;;;5.97;2.90;;;;;;;9.53;59.46;102479.59;4953598;28;123613;-71
2022/10/11 03:47:09;;;;;;;6.43;3.10;;;;;;;9.50;59.30;102471.69;4975484;28;124440;-72
2022/10/11 03:49:36;;;;;;;4.25;3.10;;;;;;;9.46;59.07;102483.22;4954290;28;119920;-72
2022/10/11 03:52:10;;;;;;;7.50;3.00;;;;;;;9.44;58.96;102485.00;4966947;28;118875;-72
2022/10/11 03:54:37;;;;;;;5.75;3.00;;;;;;;9.41;59.49;102487.66;4949373;28;122933;-71
2022/10/11 03:57:04;;;;;;;6.28;3.10;;;;;;;9.39;59.21;102492.13;4949087;28;124433;-72
2022/10/11 03:59:31;;;;;;;7.95;3.45;;;;;;;9.36;59.06;102497.44;4965242;28;120000;-72
2022/10/11 04:01:58;;;;;;;6.97;3.03;;;;;;;9.34;59.10;102488.66;4964267;28;118766;-72
2022/10/11 04:04:25;;;;;;;5.88;3.00;;;;;;;9.31;59.16;102489.56;4932710;28;123685;-72
2022/10/11 04:06:52;;;;;;;6.20;2.80;;;;;;;9.28;59.34;102489.59;4967065;28;124291;-72
2022/10/11 04:09:19;;;;;;;6.32;2.88;;;;;;;9.25;58.91;102499.34;4966958;28;119441;-72
2022/10/11 04:11:46;;;;;;;10.52;2.80;;;;;;;9.23;59.18;102493.19;4966794;28;118760;-72
2022/10/11 04:14:13;;;;;;;6.45;2.63;;;;;;;9.19;58.93;102499.44;4965896;28;123626;-72
2022/10/11 04:16:40;;;;;;;7.35;2.88;;;;;;;9.14;58.85;102503.00;4966070;28;124210;-72
2022/10/11 04:19:07;;;;;;;4.97;2.50;;;;;;;9.10;58.79;102511.88;4966591;28;120795;-72
2022/10/11 04:21:34;;;;;;;8.18;2.70;;;;;;;9.07;59.01;102511.03;4967063;28;118747;-72
2022/10/11 04:24:01;;;;;;;6.03;2.80;;;;;;;9.03;58.89;102504.03;4966485;28;124996;-72
2022/10/11 04:26:29;;;;;;;5.75;2.70;;;;;;;9.00;58.89;102510.22;4964498;28;122988;-72
2022/10/11 04:28:56;;;;;;;6.05;3.05;;;;;;;8.97;58.99;102510.28;4966951;28;120089;-72
2022/10/11 04:31:23;;;;;;;6.32;2.88;;;;;;;8.94;58.95;102515.56;4946053;28;119783;-72
2022/10/11 04:33:50;;;;;;;6.18;3.13;;;;;;;8.91;59.04;102516.50;4949298;28;123504;-72
2022/10/11 04:36:17;;;;;;;5.85;2.88;;;;;;;8.92;59.18;102517.38;4932463;28;122839;-72
2022/10/11 04:38:44;;;;;;;5.07;2.70;;;;;;;8.89;59.35;102523.56;4957508;28;118423;-72
2022/10/11 04:41:12;;;;;;;5.72;2.75;;;;;;;8.88;59.56;102531.50;4966004;28;118706;-72
2022/10/11 04:43:40;;;;;;;3.80;2.58;;;;;;;8.87;59.34;102524.47;4966173;28;123862;-72
2022/10/11 04:46:08;;;;;;;5.47;2.42;;;;;;;8.87;59.30;102529.75;4947803;28;122804;-72
2022/10/11 04:48:36;;;;;;;5.43;2.75;;;;;;;8.86;59.44;102538.56;4966101;28;119609;-72
2022/10/11 04:51:04;;;;;;;5.00;2.80;;;;;;;8.85;59.58;102531.53;4965103;28;117570;-72
2022/10/11 04:53:31;;;;;;;3.65;2.45;;;;;;;8.82;59.24;102531.59;4969214;28;124847;-72
2022/10/11 04:56:00;;;;;;;6.07;2.80;;;;;;;8.81;59.23;102541.25;4949269;28;123507;-72
2022/10/11 04:58:28;;;;;;;4.60;2.50;;;;;;;8.77;59.16;102532.47;4951621;28;119419;-72
2022/10/11 05:00:56;;;;;;;6.50;2.40;;;;;;;8.74;59.29;102535.16;4969481;28;118993;-71
2022/10/11 05:03:24;;;;;;;5.07;2.30;;;;;;;8.71;59.32;102529.91;4966625;28;124590;-72
2022/10/11 05:05:51;;;;;;;5.78;2.72;;;;;;;8.69;59.07;102525.53;4969223;28;124575;-72
2022/10/11 05:08:19;;;;;;;4.97;2.38;;;;;;;8.68;59.24;102534.34;4967051;28;119350;-70
2022/10/11 05:10:56;;;;;;;5.55;2.90;;;;;;;8.63;59.13;102531.75;4950797;28;118249;-71
2022/10/11 05:13:24;;;;;;;9.07;2.50;;;;;;;8.61;59.05;102533.53;4949337;28;124289;-72
2022/10/11 05:15:51;;;;;;;6.00;2.67;;;;;;;8.59;59.20;102540.59;4969231;28;123787;-72
2022/10/11 05:18:19;;;;;;;5.57;2.47;;;;;;;8.58;59.31;102538.84;4950944;28;121282;-71
2022/10/11 05:20:46;;;;;;;5.97;2.60;;;;;;;8.56;59.06;102540.63;4969261;28;120481;-71
2022/10/11 05:23:13;;;;;;;6.78;2.60;;;;;;;8.53;59.31;102544.19;4951125;28;123344;-71
2022/10/11 05:25:40;;;;;;;3.70;2.22;;;;;;;8.51;58.94;102545.06;4966803;28;123699;-72
2022/10/11 05:28:07;;;;;;;6.60;2.70;;;;;;;8.48;59.16;102547.75;4949894;28;119254;-71
2022/10/11 05:30:34;;;;;;;4.18;2.65;;;;;;;8.46;59.09;102549.53;4951703;28;118467;-71
2022/10/11 05:33:01;;;;;;;4.32;2.85;;;;;;;8.44;59.36;102556.56;4951478;28;124433;-71
2022/10/11 05:35:28;;;;;;;6.40;2.63;;;;;;;8.42;58.92;102553.06;4951129;28;123666;-72
2022/10/11 05:37:56;;;;;;;6.00;2.75;;;;;;;8.39;58.91;102554.81;4967544;28;119393;-71
2022/10/11 05:40:24;;;;;;;3.60;2.05;;;;;;;8.37;58.99;102553.94;4933296;28;117785;-71
2022/10/11 05:42:51;;;;;;;3.70;2.20;;;;;;;8.34;59.27;102556.63;4948245;28;123866;-72
2022/10/11 05:45:18;;;;;;;5.97;2.60;;;;;;;8.34;58.97;102561.91;4966168;28;124397;-72
2022/10/11 05:47:45;;;;;;;6.47;2.80;;;;;;;8.33;59.27;102565.44;4967685;28;119025;-72
2022/10/11 05:50:12;;;;;;;3.72;2.40;;;;;;;8.31;58.98;102561.94;4949265;28;120015;-72
2022/10/11 05:52:39;;;;;;;5.65;2.90;;;;;;;8.31;59.19;102567.22;4965632;28;123815;-72
2022/10/11 05:55:06;;;;;;;5.40;2.90;;;;;;;8.29;59.22;102571.63;4948568;28;122627;-72
2022/10/11 05:57:33;;;;;;;6.40;2.63;;;;;;;8.29;59.20;102569.00;4968518;28;119358;-71
2022/10/11 06:00:01;;;;;;;6.22;2.70;;;;;;;8.29;59.16;102569.00;4968241;28;119434;-72
2022/10/11 06:02:38;;;;;;;3.33;2.42;;;;;;;8.26;58.89;102571.63;4968040;28;124504;-72
2022/10/11 06:05:05;;;;;;;6.35;3.05;;;;;;;8.26;59.49;102579.56;4968517;28;124010;-72
2022/10/11 06:07:35;;;;;;;6.60;2.85;;;;;;;8.25;59.10;102577.81;4950747;28;120066;-72
2022/10/11 06:10:03;;;;;;;8.10;3.30;;;;;;;8.26;59.54;102583.97;4968278;28;121457;-72
2022/10/11 06:12:30;;;;;;;7.10;3.00;;;;;;;8.26;59.11;102584.84;4949989;28;122954;-72
2022/10/11 06:14:57;;;;;;;6.55;2.85;;;;;;;8.27;59.28;102578.69;4933756;28;123641;-72
2022/10/11 06:17:24;;;;;;;7.30;3.65;;;;;;;8.29;59.60;102583.97;4968446;28;119972;-72
2022/10/11 06:19:51;;;;;;;6.57;3.40;;;;;;;8.30;59.72;102583.06;4967536;28;118864;-71
2022/10/11 06:22:18;;;;;;;9.60;3.65;;;;;;;8.31;59.69;102583.06;4966921;28;123963;-71
2022/10/11 06:24:45;;;;;;;6.82;3.80;;;;;;;8.32;59.63;102583.91;4967588;28;123788;-72
2022/10/11 06:27:13;;;;;;;5.82;3.60;;;;;;;8.33;59.80;102591.84;4950593;28;119864;-71
2022/10/11 06:29:39;;;;;;;6.88;3.80;;;;;;;8.35;59.58;102603.25;4967241;28;119009;-70
2022/10/11 06:32:06;;;;;;;8.73;3.88;;;;;;;8.39;59.77;102594.41;4949037;28;122976;-71
2022/10/11 06:34:33;;;;;;;8.30;3.85;;;;;;;8.43;59.64;102597.06;4967970;28;123749;-71
2022/10/11 06:37:00;;;;;;;7.50;3.83;;;;;;;8.46;59.76;102600.56;4949635;28;118368;-71
2022/10/11 06:39:27;;;;;;;7.50;4.03;;;;;;;8.50;59.97;102596.16;4947863;28;119607;-72
2022/10/11 06:41:54;;;;;;;11.60;4.13;;;;;;;8.55;60.17;102602.25;4964086;28;124847;-71
2022/10/11 06:44:21;;;;;;;8.63;4.75;;;;;;;8.61;59.94;102607.50;4967446;28;124655;-72
2022/10/11 06:46:48;;;;;;;9.98;5.40;;;;;;;8.67;60.67;102604.78;4967861;28;119167;-70
2022/10/11 06:49:15;;;;;;;8.52;4.72;;;;;;;8.76;60.27;102614.41;4949182;28;118833;-71
2022/10/11 06:51:56;;;;;;;9.88;4.45;;;;;;;8.84;60.62;102614.34;4978200;28;124269;-71
2022/10/11 06:54:23;;;;;;;5.40;3.17;;;;;;;8.91;60.86;102608.09;4943333;28;123657;-71
2022/10/11 06:56:50;;;;;;;7.30;3.28;;;;;;;8.99;60.66;102608.91;4971960;28;120278;-72
2022/10/11 06:59:17;;;;;;;5.95;3.13;;;;;;;9.08;60.66;102614.09;4948490;28;119875;-72
2022/10/11 07:01:44;;;;;;;9.32;3.78;;;;;;;9.18;60.66;102624.59;4949916;28;123260;-74
2022/10/11 07:04:11;;;;;;;7.07;3.88;;;;;;;9.27;60.71;102619.19;4948088;28;124024;-71
2022/10/11 07:06:40;;;;;;;6.28;4.25;;;;;;;9.36;60.83;102624.34;4969184;28;120228;-71
2022/10/11 07:09:07;;;;;;;9.48;3.60;;;;;;;9.46;60.83;102618.09;4950024;28;118606;-69
2022/10/11 07:11:34;;;;;;;6.72;3.30;;;;;;;9.55;60.55;102623.28;4949740;28;123158;-69
2022/10/11 07:14:06;;;;;;;6.95;3.05;;;;;;;9.59;60.57;102620.56;4947697;28;123673;-69
2022/10/11 07:16:35;;;;;;;9.52;3.58;;;;;;;9.65;60.51;102628.44;4948912;28;118640;-70
2022/10/11 07:19:04;;;;;;;5.25;3.33;;;;;;;9.71;60.73;102631.88;4966987;28;119190;-69
2022/10/11 07:21:33;;;;;;;8.30;3.60;;;;;;;9.79;60.61;102634.41;4948065;28;124002;-69
2022/10/11 07:24:01;;;;;;;7.28;3.63;;;;;;;9.86;61.00;102636.09;4966093;28;123784;-69
2022/10/11 07:26:28;;;;;;;9.35;4.25;;;;;;;9.96;60.99;102642.13;4949846;28;118952;-69
2022/10/11 07:29:03;;;;;;;8.27;4.60;;;;;;;10.05;60.74;102647.31;4963530;28;118864;-69
2022/10/11 07:31:31;;;;;;;10.23;4.85;;;;;;;10.16;60.99;102639.22;4968596;28;124153;-70
2022/10/11 07:33:58;;;;;;;11.18;5.40;;;;;;;10.26;60.99;102640.81;4966664;28;123896;-70
2022/10/11 07:36:25;;;;;;;11.23;5.30;;;;;;;10.35;61.34;102644.28;4965509;28;119654;-70
2022/10/11 07:38:52;;;;;;;10.13;5.82;;;;;;;10.46;61.33;102642.34;4965147;28;119173;-70
2022/10/11 07:41:20;;;;;;;11.15;6.00;;;;;;;10.56;61.47;102643.94;4955097;28;124141;-71
2022/10/11 07:43:48;;;;;;;14.93;6.40;;;;;;;10.67;61.94;102642.00;4946887;28;122062;-70
2022/10/11 07:46:16;;;;;;;12.43;6.88;;;;;;;10.81;62.13;102643.53;4965761;28;120087;-70
2022/10/11 07:48:44;;;;;;;17.08;7.35;;;;;;;10.94;62.05;102647.72;4967059;28;120464;-70
2022/10/11 07:51:17;;;;;;;11.85;6.95;;;;;;;11.06;62.11;102650.16;4966796;28;124027;-70
2022/10/11 07:53:54;;;;;;;14.80;6.95;;;;;;;11.21;62.10;102648.16;4963871;28;123651;-70
2022/10/11 07:56:26;;;;;;;11.95;7.30;;;;;;;11.33;62.08;102653.22;4952614;28;118859;-70
2022/10/11 07:58:56;;;;;;;18.35;7.25;;;;;;;11.45;62.13;102652.09;4964287;28;119060;-70
2022/10/11 08:01:24;;;;;;;23.98;10.10;;;;;;;11.57;62.17;102656.31;4939865;28;123636;-70
2022/10/11 08:03:52;;;;;;;19.23;10.52;;;;;;;11.67;62.28;102647.22;4947561;28;123190;-70
2022/10/11 08:06:21;;;;;;;22.00;11.25;;;;;;;11.79;62.07;102657.63;4966000;28;120035;-70
2022/10/11 08:08:48;;;;;;;14.77;8.57;;;;;;;11.91;62.16;102658.28;4948216;28;119474;-70
2022/10/11 08:11:24;;;;;;;17.98;12.05;;;;;;;12.01;62.12;102657.16;4964939;28;123798;-70
2022/10/11 08:13:52;;;;;;;18.58;10.70;;;;;;;12.13;62.09;102662.22;4955571;28;124315;-70
2022/10/11 08:16:20;;;;;;;19.98;11.80;;;;;;;12.22;62.19;102662.03;4961308;28;119830;-70
2022/10/11 08:18:47;;;;;;;19.80;11.35;;;;;;;12.34;62.38;102666.16;4967274;28;118786;-70
2022/10/11 08:21:16;;;;;;;17.77;10.50;;;;;;;12.46;62.30;102665.00;4967480;28;124264;-70
2022/10/11 08:23:43;;;;;;;20.83;10.48;;;;;;;12.57;62.29;102662.97;4966560;28;123575;-69
2022/10/11 08:26:11;;;;;;;17.67;10.48;;;;;;;12.69;62.17;102660.91;4967067;28;119567;-70
2022/10/11 08:28:38;;;;;;;19.83;10.55;;;;;;;12.82;62.20;102673.00;4952110;28;119358;-70
2022/10/11 08:31:05;;;;;;;17.63;9.48;;;;;;;12.93;62.10;102670.94;4972188;28;124281;-70
2022/10/11 08:33:32;;;;;;;18.30;10.02;;;;;;;13.05;62.36;102675.94;4975009;28;123718;-70
2022/10/11 08:36:04;;;;;;;16.60;9.15;;;;;;;13.17;62.12;102668.56;4978835;28;121168;-70
2022/10/11 08:38:32;;;;;;;16.08;8.93;;;;;;;13.27;62.01;102670.03;4982751;28;119959;-70
2022/10/11 08:40:59;;;;;;;16.10;9.68;;;;;;;13.40;62.01;102675.94;4976420;28;124280;-70
2022/10/11 08:43:41;;;;;;;14.65;8.63;;;;;;;13.50;61.98;102676.56;4975785;28;123767;-70
2022/10/11 08:46:11;;;;;;;15.10;7.93;;;;;;;13.62;62.02;102681.56;4973876;28;118548;-71
2022/10/11 08:48:47;;;;;;;14.68;8.80;;;;;;;13.74;62.11;102675.88;4982926;28;119061;-70
2022/10/11 08:51:18;;;;;;;14.02;8.30;;;;;;;13.89;61.80;102681.66;4978075;28;123722;-70
2022/10/11 08:53:52;;;;;;;16.92;7.95;;;;;;;13.97;61.80;102680.50;4956905;28;123096;-70
2022/10/11 08:56:19;;;;;;;13.75;6.85;;;;;;;14.10;61.73;102683.69;4971303;28;119676;-70
2022/10/11 08:58:56;;;;;;;17.98;7.53;;;;;;;14.23;61.48;102683.31;4972988;28;118392;-70
2022/10/11 09:01:26;;;;;;;20.00;6.35;;;;;;;14.37;61.23;102683.75;4973170;28;124193;-70
2022/10/11 09:03:54;;;;;;;14.68;5.47;;;;;;;14.48;61.34;102678.06;4975340;28;124060;-70
2022/10/11 09:06:27;;;;;;;21.20;6.40;;;;;;;14.59;60.78;102687.50;4975216;28;119279;-70
2022/10/11 09:09:01;;;;;;;12.52;5.47;;;;;;;14.71;60.54;102690.69;4987426;28;119252;-70
2022/10/11 09:11:58;;;;;;;15.43;5.87;;;;;;;14.83;60.41;102692.97;4965807;28;124662;-70
2022/10/11 09:14:36;;;;;;;18.92;8.15;;;;;;;14.96;60.35;102686.28;4959027;28;123805;-70
2022/10/11 09:17:24;;;;;;;23.23;9.55;;;;;;;15.10;60.30;102682.28;4979881;28;119750;-70
2022/10/11 09:20:28;;;;;;;21.27;10.32;;;;;;;15.23;60.04;102688.94;4955438;28;116720;-70
2022/10/11 09:23:10;;;;;;;35.80;20.58;;;;;;;15.35;59.71;102684.94;4955935;28;123877;-70
2022/10/11 09:25:48;;;;;;;16.65;8.77;;;;;;;15.45;59.34;102682.84;4933209;28;122907;-71
2022/10/11 09:28:30;;;;;;;20.27;8.15;;;;;;;15.55;59.01;102689.59;4948212;28;120580;-70
2022/10/11 09:30:58;;;;;;;14.73;7.28;;;;;;;15.64;58.73;102689.25;4933178;28;119327;-70
2022/10/11 09:33:35;;;;;;;15.00;5.45;;;;;;;15.74;58.59;102682.66;4967225;28;124339;-70
2022/10/11 09:36:17;;;;;;;18.10;5.68;;;;;;;15.86;58.28;102688.47;4965562;28;123798;-70
2022/10/11 09:38:50;;;;;;;13.52;5.55;;;;;;;15.94;58.02;102681.06;4969082;28;119173;-70
2022/10/11 09:41:41;;;;;;;14.48;5.68;;;;;;;16.01;57.74;102682.56;4969151;28;119070;-70
2022/10/11 09:44:20;;;;;;;11.93;4.63;;;;;;;16.07;57.56;102682.31;4964955;28;124149;-70
2022/10/11 09:46:49;;;;;;;8.98;4.20;;;;;;;16.15;57.89;102685.56;4968874;28;123977;-70
2022/10/11 09:49:19;;;;;;;9.82;3.55;;;;;;;16.27;57.31;102694.03;4969703;28;119100;-70
2022/10/11 09:51:56;;;;;;;12.45;3.50;;;;;;;16.35;56.92;102686.59;4969296;28;118731;-70
2022/10/11 09:54:38;;;;;;;12.23;3.53;;;;;;;16.45;56.86;102682.59;4974051;28;123852;-70
2022/10/11 09:57:19;;;;;;;10.77;3.15;;;;;;;16.55;56.54;102683.09;4969717;28;122903;-70
2022/10/11 10:00:10;;;;;;;12.73;3.10;;;;;;;16.65;56.26;102678.22;4968503;28;119115;-70
2022/10/11 10:02:45;;;;;;;8.45;3.30;;;;;;;16.74;55.79;102683.19;4967612;28;119451;-71
2022/10/11 10:05:17;;;;;;;8.65;3.13;;;;;;;16.83;55.12;102687.34;4967058;28;125291;-70
2022/10/11 10:08:09;;;;;;;9.95;2.83;;;;;;;16.89;55.22;102685.25;4950251;28;124727;-70
2022/10/11 10:10:42;;;;;;;9.52;2.55;;;;;;;16.99;55.06;102688.44;4968550;28;119452;-71
2022/10/11 10:13:21;;;;;;;9.77;2.40;;;;;;;17.08;54.30;102687.16;4935740;28;118815;-70
2022/10/11 10:15:52;;;;;;;8.27;2.63;;;;;;;17.16;54.18;102685.03;4971812;28;124410;-70
2022/10/11 10:18:28;;;;;;;8.80;2.70;;;;;;;17.25;54.18;102679.28;4970580;28;123873;-70
2022/10/11 10:20:58;;;;;;;9.65;2.40;;;;;;;17.38;53.76;102681.41;4967520;28;120446;-70
2022/10/11 10:23:29;;;;;;;7.80;2.38;;;;;;;17.45;53.22;102674.84;4966655;28;119330;-70
2022/10/11 10:26:29;;;;;;;12.25;2.38;;;;;;;17.53;53.47;102680.72;4950885;28;124804;-71
2022/10/11 10:28:58;;;;;;;8.55;2.40;;;;;;;17.63;52.98;102679.38;4939717;28;124354;-70
2022/10/11 10:31:36;;;;;;;13.00;2.67;;;;;;;17.71;52.38;102682.56;4960688;28;119206;-70
2022/10/11 10:34:30;;;;;;;7.25;1.67;;;;;;;17.79;51.55;102673.31;4966558;28;119053;-70
2022/10/11 10:37:05;;;;;;;8.00;2.05;;;;;;;17.85;51.42;102678.41;4966898;28;124181;-70
2022/10/11 10:39:42;;;;;;;12.38;2.30;;;;;;;17.93;51.56;102678.91;4950410;28;124117;-70
2022/10/11 10:42:14;;;;;;;9.18;1.90;;;;;;;18.04;50.85;102683.78;4965957;28;119129;-70
2022/10/11 10:44:43;;;;;;;7.70;1.83;;;;;;;18.12;50.97;102680.72;4949249;28;118130;-70
2022/10/11 10:47:57;;;;;;;6.78;1.80;;;;;;;18.18;50.67;102685.84;4967150;28;123838;-71
2022/10/11 10:50:31;;;;;;;11.00;2.33;;;;;;;18.29;50.38;102683.50;4927867;28;124448;-70
2022/10/11 10:53:15;;;;;;;10.90;2.05;;;;;;;18.36;50.28;102684.91;4962817;28;119205;-73
2022/10/11 10:55:46;;;;;;;9.20;2.30;;;;;;;18.42;50.00;102673.91;4960513;28;119080;-70
2022/10/11 10:58:52;;;;;;;9.43;2.28;;;;;;;18.52;49.95;102673.47;4958478;28;123015;-70
2022/10/11 11:01:26;;;;;;;12.23;2.30;;;;;;;18.62;49.58;102674.72;4961682;28;125854;-70
2022/10/11 11:04:20;;;;;;;9.57;2.23;;;;;;;18.70;49.45;102667.16;4967426;28;119551;-70
2022/10/11 11:06:50;;;;;;;7.75;2.47;;;;;;;18.78;49.11;102664.97;4968341;28;119009;-71
2022/10/11 11:09:23;;;;;;;9.50;2.35;;;;;;;18.84;48.73;102664.69;4954136;28;122903;-70
2022/10/11 11:11:57;;;;;;;10.00;2.33;;;;;;;18.89;48.42;102666.25;4966345;28;123711;-70
2022/10/11 11:14:43;;;;;;;6.57;2.13;;;;;;;18.92;48.39;102663.44;4969266;28;120473;-70
2022/10/11 11:17:42;;;;;;;6.60;2.28;;;;;;;18.95;48.21;102655.19;4964967;28;119942;-70
2022/10/11 11:20:23;;;;;;;10.70;2.50;;;;;;;18.98;48.09;102655.91;4959771;28;123953;-70
2022/10/11 11:23:01;;;;;;;10.73;2.13;;;;;;;19.02;47.58;102654.81;4963189;28;123686;-70
2022/10/11 11:25:45;;;;;;;11.98;1.90;;;;;;;19.05;47.78;102659.16;4966232;28;119041;-70
2022/10/11 11:28:17;;;;;;;11.75;2.25;;;;;;;19.08;47.64;102650.97;4964641;28;119004;-70
2022/10/11 11:31:08;;;;;;;10.75;2.28;;;;;;;19.11;47.16;102645.41;4965536;28;124216;-70
2022/10/11 11:33:48;;;;;;;11.20;2.05;;;;;;;19.16;47.14;102643.34;4967263;28;124070;-70
2022/10/11 11:36:34;;;;;;;10.07;2.30;;;;;;;19.18;46.89;102644.13;4965001;28;119561;-70
2022/10/11 11:39:05;;;;;;;10.70;2.42;;;;;;;19.19;46.62;102642.31;4966039;28;119043;-70